หน้าหลัก
METAR-TAF:

METAR-TAF

ท่าอากาศยาน :

ท่าอากาศยานนานาชาติซูการ์โน-ฮัตตา

จาการ์ตา, ชวา, อินโดนีเซีย

ละติจูด: 06-07S, ลองจิจูด: 106-39E, ความสูง: 8 ม.

การสังเกตสภาพอากาศปัจจุบัน

รายงานได้ทำขึ้นเมื่อ 39 นาทีที่แล้ว ณ เวลา 19:30 UTC
ลม 5 นอตจากใต้
อุณหภูมิ 28°C
ความชื้น 79%
ความกดอากาศ 1009 hPa
ทัศนวิสัย: 3500 ม.
มีเมฆน้อยที่ความสูง 2200 ฟุต
เมฆหมอก,

METAR: WIII 271930Z 18005KT 3500 HZ FEW022 28/24 Q1009 NOSIG

เวลา: 03:09 (20:09 UTC)

การพยากรณ์

รายงานได้ทำขึ้นเมื่อ 3 ชั่วโมงและ 9 นาทีที่แล้ว ณ เวลา 17:00 UTC
การพยากรณ์มีผลตั้งแต่วันที่ 27 ณ เวลา 18 UTC จนถึงวันที่ 29 ณ เวลา 00 UTC
ลม 5 นอตจากตะวันออกเฉียงใต้
ทัศนวิสัย: 4000 ม.
มีเมฆกระจายเป็นบางส่วนที่ความสูง 2000 ฟุต
เมฆหมอก
กำลังกลายเป็น
ตั้งแต่วันที่ 28 ณ เวลา 00 UTC จนถึงวันที่ 28 ณ เวลา 02 UTC
ลม 11 นอตจากตะวันออกเฉียงเหนือ
ทัศนวิสัย: 9000 ม.
กำลังกลายเป็น
ตั้งแต่วันที่ 28 ณ เวลา 12 UTC จนถึงวันที่ 28 ณ เวลา 14 UTC
ลม 4 นอตจากตะวันออกเฉียงใต้

TAF: WIII 271700Z 2718/2900 14005KT 4000 HZ SCT020 BECMG 2800/2802 05011KT 9000 NSW BECMG 2812/2814 13004KT

สังเกตการณ์สภาพอากาศและพยากรณ์อากาศของสนามบินมากกว่า 4000 แห่ง (รายงาน METAR และ TAF).

สถานีที่ดูได้จะแสดงไว้ด้วยจุดสีเหลืองและสีแดงบนแผนที่.

เลื่อนเมาส์ไปเหนือจุดเพื่อดูชื่อสถานี.

แล้วคลิกเพื่อดูสังเกตการณ์และการพยากรณ์สภาพอากาศ.

ในการเปลี่ยนแผนที่: คลิกที่ปุ่มสีเขียวที่มีกากบาทสีดำเพื่อซูมเข้า; ที่ปุ่มสีเขียวที่มีขีดเพื่อซูมออก; หรือที่ลูกศรสีเขียวเพื่อไปยังแผนที่ที่อยู่ติดกัน.


METAR-TAF: